Time;durP1;ratioP1;P1;durP2;ratioP2;P2;SDS_P1;SDS_P2;PMS_P1;PMS_P2;Temp;Humidity;BMP_temperature;BMP_pressure;BME280_temperature;BME280_humidity;BME280_pressure;Samples;Min_cycle;Max_cycle;Signal;HPM_P1;HPM_P2
2023/09/25 00:07:42;;;;;;;3.88;1.85;;;;;;;;;;6252403;28;20057;-81
2023/09/25 00:10:45;;;;;;;5.10;1.77;;;;;;;;;;6248937;28;20077;-80
2023/09/25 00:13:47;;;;;;;2.53;1.52;;;;;;;;;;6273929;28;20098;-81
2023/09/25 00:16:49;;;;;;;2.83;1.73;;;;;;;;;;6267721;28;20061;-81
2023/09/25 00:19:51;;;;;;;2.88;1.80;;;;;;;;;;6274167;28;20062;-79
2023/09/25 00:22:53;;;;;;;4.00;1.90;;;;;;;;;;6276215;28;20063;-80
2023/09/25 00:26:03;;;;;;;2.65;1.83;;;;;;;;;;6276281;28;20349;-80
2023/09/25 00:29:05;;;;;;;3.55;1.98;;;;;;;;;;6275399;28;20056;-80
2023/09/25 00:32:07;;;;;;;4.20;1.90;;;;;;;;;;6257963;28;20065;-80
2023/09/25 00:35:09;;;;;;;4.45;2.22;;;;;;;;;;6254717;28;20099;-80
2023/09/25 00:38:11;;;;;;;4.10;2.15;;;;;;;;;;6251676;28;20064;-79
2023/09/25 00:41:15;;;;;;;3.35;2.03;;;;;;;;;;6253606;28;20060;-79
2023/09/25 00:44:16;;;;;;;3.35;1.85;;;;;;;;;;6265484;28;20053;-81
2023/09/25 00:47:18;;;;;;;4.97;2.03;;;;;;;;;;6262823;28;20269;-80
2023/09/25 00:50:20;;;;;;;8.70;1.88;;;;;;;;;;6253948;28;20041;-84
2023/09/25 00:53:22;;;;;;;7.05;2.33;;;;;;;;;;6267732;28;20056;-80
2023/09/25 00:56:25;;;;;;;2.90;1.90;;;;;;;;;;6277283;28;20048;-80
2023/09/25 00:59:27;;;;;;;2.55;1.95;;;;;;;;;;6276716;28;20067;-80
2023/09/25 01:02:31;;;;;;;5.00;2.17;;;;;;;;;;6273609;28;20071;-80
2023/09/25 01:05:33;;;;;;;5.28;2.35;;;;;;;;;;6274886;28;20230;-80
2023/09/25 01:08:35;;;;;;;3.80;2.30;;;;;;;;;;6274570;28;20061;-79
2023/09/25 01:11:38;;;;;;;5.43;2.30;;;;;;;;;;6277523;28;20071;-80
2023/09/25 01:14:40;;;;;;;4.15;2.28;;;;;;;;;;6277459;28;20057;-82
2023/09/25 01:17:42;;;;;;;5.22;2.10;;;;;;;;;;6260259;28;20041;-79
2023/09/25 01:20:43;;;;;;;4.05;2.63;;;;;;;;;;6250101;28;20108;-81
2023/09/25 01:23:47;;;;;;;3.28;1.85;;;;;;;;;;6253439;28;20056;-80
2023/09/25 01:26:48;;;;;;;3.35;2.30;;;;;;;;;;6254125;28;20229;-81
2023/09/25 01:29:50;;;;;;;2.92;2.15;;;;;;;;;;6252335;28;20083;-82
2023/09/25 01:32:53;;;;;;;3.08;2.15;;;;;;;;;;6251453;28;20096;-79
2023/09/25 01:35:55;;;;;;;5.07;2.10;;;;;;;;;;6253733;28;20060;-81
2023/09/25 01:38:58;;;;;;;3.10;2.00;;;;;;;;;;6253224;28;20112;-79
2023/09/25 01:42:00;;;;;;;3.75;1.90;;;;;;;;;;6252221;28;20049;-80
2023/09/25 01:45:02;;;;;;;5.85;2.28;;;;;;;;;;6254155;28;20046;-80
2023/09/25 01:48:04;;;;;;;4.47;2.10;;;;;;;;;;6250203;28;20087;-78
2023/09/25 01:51:10;;;;;;;3.13;2.15;;;;;;;;;;6255156;28;20057;-81
2023/09/25 01:54:13;;;;;;;3.38;2.10;;;;;;;;;;6281805;28;20341;-80
2023/09/25 01:57:15;;;;;;;2.45;2.10;;;;;;;;;;6279573;28;20727;-80
2023/09/25 02:00:18;;;;;;;3.80;2.10;;;;;;;;;;6279370;28;20053;-82
2023/09/25 02:03:20;;;;;;;3.33;2.20;;;;;;;;;;6282406;28;20116;-81
2023/09/25 02:06:22;;;;;;;2.92;1.98;;;;;;;;;;6281203;28;20095;-80
2023/09/25 02:09:25;;;;;;;4.07;2.13;;;;;;;;;;6283045;28;20041;-80
2023/09/25 02:12:27;;;;;;;3.58;2.45;;;;;;;;;;6281434;28;20435;-79
2023/09/25 02:15:29;;;;;;;4.38;2.47;;;;;;;;;;6279424;28;20085;-80
2023/09/25 02:18:31;;;;;;;3.60;2.20;;;;;;;;;;6282747;28;20228;-81
2023/09/25 02:21:32;;;;;;;4.45;2.00;;;;;;;;;;6280729;28;20049;-80
2023/09/25 02:24:36;;;;;;;3.92;2.15;;;;;;;;;;6281011;28;20059;-80
2023/09/25 02:27:39;;;;;;;5.07;2.13;;;;;;;;;;6277684;28;20051;-80
2023/09/25 02:30:41;;;;;;;3.22;1.77;;;;;;;;;;6279759;28;20379;-80
2023/09/25 02:33:42;;;;;;;6.00;2.20;;;;;;;;;;6282378;28;20331;-81
2023/09/25 02:36:44;;;;;;;4.13;2.13;;;;;;;;;;6279241;28;20080;-80
2023/09/25 02:39:48;;;;;;;3.53;2.10;;;;;;;;;;6282047;28;20061;-80
2023/09/25 02:42:49;;;;;;;3.53;2.15;;;;;;;;;;6278250;28;20103;-82
2023/09/25 02:45:52;;;;;;;2.40;1.85;;;;;;;;;;6280726;28;20203;-80
2023/09/25 02:48:54;;;;;;;3.75;1.98;;;;;;;;;;6280511;28;20099;-80
2023/09/25 02:51:56;;;;;;;3.42;1.77;;;;;;;;;;6280453;28;20064;-79
2023/09/25 02:54:59;;;;;;;4.25;2.00;;;;;;;;;;6282818;28;20086;-81
2023/09/25 02:58:01;;;;;;;2.80;1.77;;;;;;;;;;6278817;28;20207;-80
2023/09/25 03:01:03;;;;;;;3.38;1.77;;;;;;;;;;6279885;28;20116;-80
2023/09/25 03:04:05;;;;;;;3.55;1.90;;;;;;;;;;6276750;28;20368;-80
2023/09/25 03:07:07;;;;;;;2.80;1.50;;;;;;;;;;6280920;28;20061;-80
2023/09/25 03:10:10;;;;;;;1.95;1.23;;;;;;;;;;6279542;28;20064;-81
2023/09/25 03:13:12;;;;;;;3.15;1.30;;;;;;;;;;6278052;28;20059;-80
2023/09/25 03:16:14;;;;;;;2.60;1.25;;;;;;;;;;6278814;28;20045;-80
2023/09/25 03:19:20;;;;;;;3.78;1.40;;;;;;;;;;6278582;28;20060;-78
2023/09/25 03:22:31;;;;;;;3.47;1.55;;;;;;;;;;6277394;28;20045;-78
2023/09/25 03:25:51;;;;;;;3.65;1.40;;;;;;;;;;6280331;28;20068;-80
2023/09/25 03:37:20;;;;;;;2.97;1.25;;;;;;;;;;6219144;28;20041;-79
2023/09/25 03:56:27;;;;;;;2.58;1.27;;;;;;;;;;6119719;28;20051;-80
2023/09/25 04:06:54;;;;;;;2.15;1.35;;;;;;;;;;6199765;28;20046;-80
2023/09/25 04:09:57;;;;;;;2.35;0.93;;;;;;;;;;6184217;28;20046;-80
2023/09/25 04:13:03;;;;;;;2.38;1.15;;;;;;;;;;6184701;28;20121;-81
2023/09/25 04:16:07;;;;;;;2.83;1.17;;;;;;;;;;6212077;28;20280;-81
2023/09/25 04:19:08;;;;;;;2.20;1.02;;;;;;;;;;6245523;28;20084;-80
2023/09/25 04:22:11;;;;;;;4.63;1.30;;;;;;;;;;6252013;28;20120;-80
2023/09/25 04:25:18;;;;;;;2.83;1.00;;;;;;;;;;6263743;28;20041;-80
2023/09/25 04:28:22;;;;;;;2.80;1.05;;;;;;;;;;6278337;28;20320;-80
2023/09/25 04:31:24;;;;;;;1.80;1.25;;;;;;;;;;6280571;28;20091;-81
2023/09/25 04:34:26;;;;;;;3.78;1.00;;;;;;;;;;6276257;28;20396;-79
2023/09/25 04:37:27;;;;;;;2.88;1.08;;;;;;;;;;6280409;28;20049;-79
2023/09/25 04:40:31;;;;;;;4.55;1.45;;;;;;;;;;6278144;28;20053;-81
2023/09/25 04:43:34;;;;;;;1.80;1.30;;;;;;;;;;6276746;28;20068;-79
2023/09/25 04:46:55;;;;;;;3.60;1.45;;;;;;;;;;6275521;28;20261;-81
2023/09/25 04:49:57;;;;;;;2.83;1.23;;;;;;;;;;6265487;28;20059;-80
2023/09/25 04:52:59;;;;;;;4.07;1.20;;;;;;;;;;6276716;28;20053;-80
2023/09/25 04:56:01;;;;;;;3.42;1.30;;;;;;;;;;6276260;28;20053;-79
2023/09/25 04:59:05;;;;;;;2.22;1.10;;;;;;;;;;6274141;28;20053;-80
2023/09/25 05:02:07;;;;;;;5.15;1.33;;;;;;;;;;6262041;28;20099;-80
2023/09/25 05:05:09;;;;;;;3.00;1.10;;;;;;;;;;6278508;28;20292;-80
2023/09/25 05:08:11;;;;;;;1.67;0.93;;;;;;;;;;6275973;28;20124;-79
2023/09/25 05:11:13;;;;;;;3.70;1.20;;;;;;;;;;6276888;28;20060;-81
2023/09/25 05:14:16;;;;;;;2.78;1.23;;;;;;;;;;6276708;28;20069;-82
2023/09/25 05:17:18;;;;;;;3.25;1.17;;;;;;;;;;6275693;28;20057;-80
2023/09/25 05:20:22;;;;;;;2.85;1.48;;;;;;;;;;6278590;28;20040;-80
2023/09/25 05:23:24;;;;;;;2.40;1.25;;;;;;;;;;6278314;28;20244;-79
2023/09/25 05:26:44;;;;;;;5.57;1.70;;;;;;;;;;6277577;28;20044;-81
2023/09/25 05:29:47;;;;;;;4.25;1.48;;;;;;;;;;6271920;28;20053;-81
2023/09/25 05:32:50;;;;;;;3.47;1.45;;;;;;;;;;6244918;28;20092;-81
2023/09/25 05:35:52;;;;;;;2.85;1.30;;;;;;;;;;6252794;28;20131;-81
2023/09/25 05:38:55;;;;;;;4.15;1.40;;;;;;;;;;6253227;28;20049;-80
2023/09/25 05:41:57;;;;;;;6.20;1.67;;;;;;;;;;6254051;28;20053;-81
2023/09/25 05:45:00;;;;;;;2.92;1.50;;;;;;;;;;6252993;28;20281;-81
2023/09/25 05:48:03;;;;;;;6.15;2.22;;;;;;;;;;6248549;28;20072;-80
2023/09/25 05:51:05;;;;;;;3.75;2.13;;;;;;;;;;6251252;28;20061;-79
2023/09/25 05:54:07;;;;;;;3.80;1.65;;;;;;;;;;6254553;28;20109;-79
2023/09/25 05:57:09;;;;;;;4.88;1.45;;;;;;;;;;6253669;28;20117;-80
2023/09/25 06:00:18;;;;;;;5.85;1.90;;;;;;;;;;6253745;28;20184;-79
2023/09/25 06:03:20;;;;;;;5.43;2.00;;;;;;;;;;6252306;28;20103;-78
2023/09/25 06:06:22;;;;;;;4.35;1.40;;;;;;;;;;6247780;28;20080;-80
2023/09/25 06:09:23;;;;;;;3.83;2.00;;;;;;;;;;6251337;28;20405;-79
2023/09/25 06:12:25;;;;;;;2.75;1.58;;;;;;;;;;6253544;28;20042;-80
2023/09/25 06:15:30;;;;;;;3.75;1.83;;;;;;;;;;6246786;28;20113;-81
2023/09/25 06:18:32;;;;;;;4.68;1.50;;;;;;;;;;6229947;28;20050;-90
2023/09/25 06:21:34;;;;;;;4.85;2.30;;;;;;;;;;6223060;28;20130;-79
2023/09/25 06:24:36;;;;;;;4.00;1.55;;;;;;;;;;6241093;28;20053;-79
2023/09/25 06:27:39;;;;;;;6.05;1.80;;;;;;;;;;6248934;28;20037;-82
2023/09/25 06:30:43;;;;;;;4.40;1.63;;;;;;;;;;6238468;28;20369;-82
2023/09/25 06:33:45;;;;;;;5.00;1.75;;;;;;;;;;6226146;28;20065;-82
2023/09/25 06:36:47;;;;;;;3.20;1.60;;;;;;;;;;6231376;28;20349;-81
2023/09/25 06:39:49;;;;;;;3.58;1.70;;;;;;;;;;6229562;28;20327;-82
2023/09/25 06:42:51;;;;;;;4.07;1.67;;;;;;;;;;6251041;28;20058;-80
2023/09/25 06:45:54;;;;;;;4.20;1.95;;;;;;;;;;6254243;28;20045;-81
2023/09/25 06:48:56;;;;;;;5.43;1.70;;;;;;;;;;6255684;28;20091;-82
2023/09/25 06:51:58;;;;;;;3.92;1.65;;;;;;;;;;6250792;28;20049;-80
2023/09/25 06:55:00;;;;;;;5.97;1.83;;;;;;;;;;6256220;28;20076;-79
2023/09/25 06:58:01;;;;;;;7.95;1.88;;;;;;;;;;6230969;28;20038;-79
2023/09/25 07:01:05;;;;;;;5.20;1.45;;;;;;;;;;6229113;28;20337;-80
2023/09/25 07:04:07;;;;;;;3.67;1.70;;;;;;;;;;6250019;28;20215;-80
2023/09/25 07:07:09;;;;;;;3.45;1.90;;;;;;;;;;6245933;28;20060;-80
2023/09/25 07:10:11;;;;;;;4.15;1.70;;;;;;;;;;6226344;28;20042;-80
2023/09/25 07:13:13;;;;;;;4.43;1.70;;;;;;;;;;6230419;28;20333;-80
2023/09/25 07:16:16;;;;;;;7.45;1.75;;;;;;;;;;6261724;28;20057;-80
2023/09/25 07:19:18;;;;;;;3.85;1.38;;;;;;;;;;6279909;28;20045;-82
2023/09/25 07:22:21;;;;;;;5.93;1.60;;;;;;;;;;6269367;28;20166;-81
2023/09/25 07:25:23;;;;;;;4.80;1.75;;;;;;;;;;6252884;28;20099;-83
2023/09/25 07:28:25;;;;;;;6.18;1.88;;;;;;;;;;6256392;28;20121;-77
2023/09/25 07:31:28;;;;;;;7.30;1.75;;;;;;;;;;6253834;28;20045;-78
2023/09/25 07:34:30;;;;;;;4.20;1.92;;;;;;;;;;6254228;28;20333;-80
2023/09/25 07:37:32;;;;;;;4.25;2.22;;;;;;;;;;6252309;28;20045;-80
2023/09/25 07:40:34;;;;;;;4.28;1.70;;;;;;;;;;6253668;28;20049;-80
2023/09/25 07:43:37;;;;;;;3.92;1.40;;;;;;;;;;6252199;28;20121;-81
2023/09/25 07:46:48;;;;;;;5.40;1.70;;;;;;;;;;6254781;28;20053;-80
2023/09/25 07:50:01;;;;;;;9.30;1.75;;;;;;;;;;6252545;28;20249;-80
2023/09/25 07:53:03;;;;;;;4.88;1.42;;;;;;;;;;6243696;28;20057;-80
2023/09/25 07:56:08;;;;;;;3.25;1.80;;;;;;;;;;6252844;28;20432;-81
2023/09/25 07:59:11;;;;;;;2.88;1.20;;;;;;;;;;6252142;28;20398;-79
2023/09/25 08:09:06;;;;;;;3.03;1.20;;;;;;;;;;6072879;29;20391;-85
2023/09/25 08:12:08;;;;;;;3.60;1.58;;;;;;;;;;6128430;29;20057;-80
2023/09/25 08:15:11;;;;;;;4.43;1.75;;;;;;;;;;6186022;28;20054;-84
2023/09/25 08:18:15;;;;;;;3.00;1.42;;;;;;;;;;6180402;28;20050;-77
2023/09/25 08:21:17;;;;;;;3.75;1.00;;;;;;;;;;6180025;28;20113;-78
2023/09/25 08:24:19;;;;;;;2.60;0.90;;;;;;;;;;6180563;28;20101;-72
2023/09/25 08:27:21;;;;;;;1.67;1.00;;;;;;;;;;6182638;28;20106;-74
2023/09/25 08:30:23;;;;;;;3.17;0.95;;;;;;;;;;6180159;28;20149;-75
2023/09/25 08:33:26;;;;;;;6.30;1.02;;;;;;;;;;6199727;28;20054;-76
2023/09/25 08:36:28;;;;;;;2.38;0.85;;;;;;;;;;6204056;28;20069;-75
2023/09/25 08:39:29;;;;;;;2.22;1.02;;;;;;;;;;6204634;28;20046;-75
2023/09/25 08:42:31;;;;;;;3.85;1.33;;;;;;;;;;6199809;28;20054;-72
2023/09/25 08:45:34;;;;;;;5.38;1.40;;;;;;;;;;6234084;28;20064;-74
2023/09/25 08:48:37;;;;;;;2.15;1.00;;;;;;;;;;6266023;22;20045;-75
2023/09/25 08:51:39;;;;;;;;;;;;;;;;;;6290843;28;20351;-75
2023/09/25 08:54:40;;;;;;;3.03;1.42;;;;;;;;;;6290426;28;19973;-75
2023/09/25 08:57:42;;;;;;;2.47;1.08;;;;;;;;;;6292841;28;20132;-76
2023/09/25 09:00:44;;;;;;;2.33;1.17;;;;;;;;;;6293035;28;20115;-75
2023/09/25 09:03:47;;;;;;;1.60;1.13;;;;;;;;;;6290909;28;20052;-76
2023/09/25 09:06:49;;;;;;;2.33;1.02;;;;;;;;;;6271159;28;20087;-75
2023/09/25 09:09:51;;;;;;;4.60;1.00;;;;;;;;;;6291744;28;20055;-76
2023/09/25 09:12:53;;;;;;;3.17;1.10;;;;;;;;;;6293778;28;20651;-76
2023/09/25 09:15:57;;;;;;;2.70;1.10;;;;;;;;;;6291881;28;20167;-76
2023/09/25 09:19:07;;;;;;;3.00;1.45;;;;;;;;;;6291715;28;20052;-76
2023/09/25 09:22:09;;;;;;;2.53;1.20;;;;;;;;;;6291356;28;20055;-77
2023/09/25 09:25:14;;;;;;;3.30;1.40;;;;;;;;;;6293398;28;20053;-75
2023/09/25 09:28:16;;;;;;;1.80;1.17;;;;;;;;;;6289630;28;20080;-76
2023/09/25 09:31:19;;;;;;;2.10;1.35;;;;;;;;;;6294446;28;20075;-76
2023/09/25 09:34:23;;;;;;;3.22;1.50;;;;;;;;;;6298177;28;20073;-75
2023/09/25 09:37:26;;;;;;;3.42;1.25;;;;;;;;;;6294166;28;20099;-78
2023/09/25 09:40:28;;;;;;;2.40;1.20;;;;;;;;;;6293944;28;20063;-77
2023/09/25 09:43:30;;;;;;;2.27;1.30;;;;;;;;;;6289993;28;20400;-76
2023/09/25 09:46:31;;;;;;;5.17;1.70;;;;;;;;;;6292288;28;20053;-76
2023/09/25 09:49:37;;;;;;;3.55;1.50;;;;;;;;;;6292467;28;20056;-77
2023/09/25 09:52:40;;;;;;;3.30;1.60;;;;;;;;;;6294108;28;20075;-77
2023/09/25 09:55:43;;;;;;;4.00;1.90;;;;;;;;;;6292081;28;20052;-78
2023/09/25 09:58:47;;;;;;;3.75;1.80;;;;;;;;;;6290712;28;20041;-77
2023/09/25 10:01:49;;;;;;;8.02;1.83;;;;;;;;;;6292618;28;20056;-75
2023/09/25 10:04:52;;;;;;;5.70;1.93;;;;;;;;;;6293211;28;20063;-77
2023/09/25 10:08:05;;;;;;;6.20;1.80;;;;;;;;;;6292963;28;20049;-76
2023/09/25 10:11:17;;;;;;;2.72;1.50;;;;;;;;;;6289888;28;20048;-74
2023/09/25 10:14:21;;;;;;;2.20;1.30;;;;;;;;;;6297679;28;20118;-76
2023/09/25 10:17:34;;;;;;;2.95;1.63;;;;;;;;;;6295711;28;20347;-76
2023/09/25 10:20:40;;;;;;;3.25;1.60;;;;;;;;;;6296182;28;20867;-75
2023/09/25 10:23:44;;;;;;;5.22;1.35;;;;;;;;;;6295837;28;20074;-73
2023/09/25 10:26:47;;;;;;;2.92;1.60;;;;;;;;;;6295190;28;20210;-75
2023/09/25 10:30:11;;;;;;;3.33;1.42;;;;;;;;;;6291584;28;20292;-75
2023/09/25 10:33:13;;;;;;;3.95;1.40;;;;;;;;;;6295564;28;20118;-76
2023/09/25 10:36:17;;;;;;;2.47;1.57;;;;;;;;;;6296618;28;20048;-76
2023/09/25 10:39:19;;;;;;;2.97;1.63;;;;;;;;;;6293898;28;20048;-75
2023/09/25 10:42:20;;;;;;;9.68;1.52;;;;;;;;;;6294193;28;20096;-75
2023/09/25 10:45:23;;;;;;;5.13;1.20;;;;;;;;;;6297479;28;20044;-75
2023/09/25 10:48:26;;;;;;;3.55;1.23;;;;;;;;;;6291073;28;20144;-75
2023/09/25 10:51:29;;;;;;;3.65;1.45;;;;;;;;;;6295257;28;20642;-74
2023/09/25 10:54:31;;;;;;;3.33;1.42;;;;;;;;;;6295857;28;20107;-76
2023/09/25 10:57:33;;;;;;;3.00;1.40;;;;;;;;;;6295625;28;20427;-76
2023/09/25 11:00:37;;;;;;;3.55;1.23;;;;;;;;;;6285212;28;20106;-75
2023/09/25 11:03:39;;;;;;;2.35;1.05;;;;;;;;;;6289619;28;20040;-76
2023/09/25 11:06:42;;;;;;;2.83;1.25;;;;;;;;;;6295788;28;20056;-75
2023/09/25 11:09:45;;;;;;;2.92;1.27;;;;;;;;;;6293409;28;20142;-77
2023/09/25 11:12:47;;;;;;;2.67;1.10;;;;;;;;;;6288585;28;20052;-76
2023/09/25 11:15:50;;;;;;;2.85;1.10;;;;;;;;;;6294942;28;20044;-76
2023/09/25 11:18:52;;;;;;;2.42;1.10;;;;;;;;;;6297284;28;20345;-78
2023/09/25 11:22:00;;;;;;;4.78;1.25;;;;;;;;;;6293334;28;20052;-79
2023/09/25 11:25:04;;;;;;;2.35;1.20;;;;;;;;;;6292389;28;20332;-79
2023/09/25 11:28:07;;;;;;;2.25;1.17;;;;;;;;;;6295601;28;20055;-79
2023/09/25 11:31:09;;;;;;;3.67;1.10;;;;;;;;;;6293109;28;20264;-78
2023/09/25 11:34:11;;;;;;;2.88;1.08;;;;;;;;;;6299512;28;20053;-77
2023/09/25 11:37:20;;;;;;;2.95;1.33;;;;;;;;;;6295545;28;20379;-77
2023/09/25 11:40:21;;;;;;;3.80;1.20;;;;;;;;;;6294137;28;20064;-77
2023/09/25 11:43:25;;;;;;;3.78;1.55;;;;;;;;;;6296245;28;20045;-77
2023/09/25 11:46:27;;;;;;;3.00;1.40;;;;;;;;;;6294740;28;20086;-77
2023/09/25 11:49:28;;;;;;;3.70;1.67;;;;;;;;;;6291863;28;20120;-77
2023/09/25 11:52:32;;;;;;;2.38;1.23;;;;;;;;;;6292682;28;20295;-77
2023/09/25 11:55:34;;;;;;;3.78;1.25;;;;;;;;;;6291748;28;20133;-79
2023/09/25 11:58:36;;;;;;;1.58;1.05;;;;;;;;;;6296910;28;20161;-76
2023/09/25 12:01:38;;;;;;;3.83;1.33;;;;;;;;;;6291846;28;20124;-77
2023/09/25 12:04:42;;;;;;;2.42;1.20;;;;;;;;;;6295325;28;20059;-77
2023/09/25 12:07:47;;;;;;;2.60;1.20;;;;;;;;;;6290663;28;20049;-78
2023/09/25 12:10:49;;;;;;;3.33;1.48;;;;;;;;;;6296196;28;20051;-76
2023/09/25 12:13:51;;;;;;;3.50;1.55;;;;;;;;;;6297006;28;20351;-78
2023/09/25 12:16:52;;;;;;;4.22;1.20;;;;;;;;;;6298746;28;20048;-76
2023/09/25 12:19:54;;;;;;;3.08;1.10;;;;;;;;;;6295821;28;20249;-77
2023/09/25 12:22:57;;;;;;;4.03;1.13;;;;;;;;;;6295128;28;20264;-78
2023/09/25 12:25:59;;;;;;;2.50;1.42;;;;;;;;;;6296647;28;20065;-78
2023/09/25 12:29:01;;;;;;;3.63;1.60;;;;;;;;;;6291587;28;20048;-76
2023/09/25 12:32:03;;;;;;;3.67;1.00;;;;;;;;;;6291941;28;20045;-79
2023/09/25 12:35:06;;;;;;;1.77;1.23;;;;;;;;;;6293747;28;20056;-76
2023/09/25 12:38:12;;;;;;;3.20;1.10;;;;;;;;;;6295737;28;20117;-77
2023/09/25 12:41:14;;;;;;;2.30;1.30;;;;;;;;;;6293045;28;20057;-78
2023/09/25 12:44:16;;;;;;;2.83;1.48;;;;;;;;;;6294155;28;20056;-77
2023/09/25 12:47:18;;;;;;;2.03;1.30;;;;;;;;;;6294284;28;20394;-77
2023/09/25 12:50:21;;;;;;;2.78;1.23;;;;;;;;;;6289082;28;20114;-76
2023/09/25 12:53:24;;;;;;;3.58;1.38;;;;;;;;;;6293353;28;20041;-77
2023/09/25 12:56:27;;;;;;;3.42;1.55;;;;;;;;;;6293853;28;20048;-76
2023/09/25 12:59:29;;;;;;;2.75;1.25;;;;;;;;;;6276915;28;20061;-78
2023/09/25 13:02:31;;;;;;;2.92;1.42;;;;;;;;;;6267087;28;20239;-75
2023/09/25 13:05:33;;;;;;;4.78;1.55;;;;;;;;;;6282117;28;20056;-75
2023/09/25 13:08:37;;;;;;;2.72;1.35;;;;;;;;;;6291501;28;20056;-76
2023/09/25 13:11:40;;;;;;;2.28;1.13;;;;;;;;;;6292250;28;20051;-75
2023/09/25 13:14:42;;;;;;;4.18;1.10;;;;;;;;;;6291201;28;20060;-75
2023/09/25 13:17:44;;;;;;;2.60;1.27;;;;;;;;;;6290850;28;20374;-75
2023/09/25 13:20:46;;;;;;;3.35;1.20;;;;;;;;;;6289913;28;20045;-75
2023/09/25 13:23:49;;;;;;;3.30;1.42;;;;;;;;;;6290977;28;20056;-76
2023/09/25 13:26:51;;;;;;;1.50;1.10;;;;;;;;;;6291177;28;20060;-75
2023/09/25 13:29:53;;;;;;;2.70;1.50;;;;;;;;;;6292232;28;20210;-76
2023/09/25 13:32:55;;;;;;;5.65;1.40;;;;;;;;;;6292336;28;20040;-75
2023/09/25 13:35:57;;;;;;;2.47;1.40;;;;;;;;;;6292316;28;20102;-75
2023/09/25 13:39:00;;;;;;;2.17;1.40;;;;;;;;;;6293981;28;20056;-75
2023/09/25 13:42:02;;;;;;;1.42;1.00;;;;;;;;;;6289622;28;20120;-75
2023/09/25 13:45:04;;;;;;;2.65;1.23;;;;;;;;;;6291301;28;20068;-75
2023/09/25 13:48:06;;;;;;;2.45;1.20;;;;;;;;;;6289125;28;20053;-75
2023/09/25 13:51:08;;;;;;;4.15;1.40;;;;;;;;;;6286311;28;20049;-77
2023/09/25 13:54:11;;;;;;;;;;;;;;;;;;6281715;28;20051;-77
2023/09/25 13:57:13;;;;;;;2.80;1.40;;;;;;;;;;6293322;28;19931;-76
2023/09/25 14:00:15;;;;;;;4.07;1.60;;;;;;;;;;6289188;28;20348;-76
2023/09/25 14:03:17;;;;;;;1.85;1.20;;;;;;;;;;6291507;28;20285;-74
2023/09/25 14:06:20;;;;;;;3.05;1.20;;;;;;;;;;6291915;28;20068;-74
2023/09/25 14:09:24;;;;;;;3.70;1.30;;;;;;;;;;6291271;28;20076;-75
2023/09/25 14:12:26;;;;;;;3.10;1.42;;;;;;;;;;6294542;28;20052;-74
2023/09/25 14:15:29;;;;;;;2.60;1.55;;;;;;;;;;6287282;28;20084;-75
2023/09/25 14:18:31;;;;;;;2.42;1.17;;;;;;;;;;6291873;28;20075;-75
2023/09/25 14:21:33;;;;;;;2.35;1.00;;;;;;;;;;6289140;28;20048;-75
2023/09/25 14:24:36;;;;;;;2.13;1.23;;;;;;;;;;6292042;28;20052;-74
2023/09/25 14:27:38;;;;;;;1.98;1.40;;;;;;;;;;6281865;28;20087;-74
2023/09/25 14:30:40;;;;;;;;;;;;;;;;;;6257803;28;20061;-76
2023/09/25 14:33:42;;;;;;;2.30;1.40;;;;;;;;;;6263886;28;19924;-77
2023/09/25 14:36:44;;;;;;;4.30;1.58;;;;;;;;;;6275183;28;20061;-77
2023/09/25 14:39:48;;;;;;;2.67;1.45;;;;;;;;;;6271599;28;20056;-77
2023/09/25 14:42:50;;;;;;;2.33;1.33;;;;;;;;;;6282864;28;20064;-77
2023/09/25 14:45:52;;;;;;;4.75;1.40;;;;;;;;;;6277541;28;20064;-78
2023/09/25 14:48:54;;;;;;;3.53;1.55;;;;;;;;;;6285693;28;20045;-78
2023/09/25 14:51:56;;;;;;;2.28;1.50;;;;;;;;;;6287863;28;20057;-78
2023/09/25 14:54:59;;;;;;;;;;;;;;;;;;6289764;28;20061;-78
2023/09/25 14:58:01;;;;;;;3.25;1.40;;;;;;;;;;6287352;28;19916;-78
2023/09/25 15:01:03;;;;;;;1.90;1.50;;;;;;;;;;6295764;28;20061;-78
2023/09/25 15:04:05;;;;;;;3.83;1.45;;;;;;;;;;6291305;28;20533;-78
2023/09/25 15:07:07;;;;;;;1.65;1.30;;;;;;;;;;6297305;28;20064;-78
2023/09/25 15:10:11;;;;;;;3.08;1.38;;;;;;;;;;6292086;28;20289;-79
2023/09/25 15:13:13;;;;;;;3.03;1.58;;;;;;;;;;6295994;28;20075;-78
2023/09/25 15:16:18;;;;;;;3.58;1.73;;;;;;;;;;6289977;28;20107;-77
2023/09/25 15:19:20;;;;;;;2.13;1.30;;;;;;;;;;6250010;28;20195;-79
2023/09/25 15:22:23;;;;;;;6.60;1.45;;;;;;;;;;6252066;28;20325;-78
2023/09/25 15:25:26;;;;;;;2.10;1.35;;;;;;;;;;6291007;28;20104;-78
2023/09/25 15:28:28;;;;;;;3.05;1.50;;;;;;;;;;6293316;28;20858;-77
2023/09/25 15:31:30;;;;;;;2.30;1.50;;;;;;;;;;6291316;28;20060;-78
2023/09/25 15:34:32;;;;;;;2.83;1.30;;;;;;;;;;6290986;28;20104;-77
2023/09/25 15:37:34;;;;;;;1.65;1.23;;;;;;;;;;6289152;28;20051;-77
2023/09/25 15:40:38;;;;;;;;;;;;;;;;;;6293036;28;20078;-77
2023/09/25 15:43:40;;;;;;;1.73;1.33;;;;;;;;;;6279816;28;20140;-77
2023/09/25 15:46:42;;;;;;;2.05;1.27;;;;;;;;;;6291159;28;20055;-77
2023/09/25 15:49:43;;;;;;;;;;;;;;;;;;6295303;28;20045;-76
2023/09/25 15:52:45;;;;;;;1.85;1.20;;;;;;;;;;6293961;28;19916;-78
2023/09/25 15:55:49;;;;;;;;;;;;;;;;;;6290367;28;20058;-77
2023/09/25 15:58:51;;;;;;;3.03;1.23;;;;;;;;;;6291078;28;20148;-77
2023/09/25 16:01:52;;;;;;;;;;;;;;;;;;6290535;28;20120;-76
2023/09/25 16:04:54;;;;;;;3.45;1.67;;;;;;;;;;6292464;28;19991;-75
2023/09/25 16:07:56;;;;;;;2.88;1.23;;;;;;;;;;6295498;28;20065;-75
2023/09/25 16:10:59;;;;;;;3.72;1.38;;;;;;;;;;6289685;28;20056;-76
2023/09/25 16:14:02;;;;;;;2.05;1.50;;;;;;;;;;6291412;28;20055;-75
2023/09/25 16:17:03;;;;;;;4.97;1.50;;;;;;;;;;6290778;28;20106;-74
2023/09/25 16:20:06;;;;;;;3.20;1.10;;;;;;;;;;6292664;28;20053;-76
2023/09/25 16:23:08;;;;;;;6.60;1.60;;;;;;;;;;6291031;28;20116;-76
2023/09/25 16:26:11;;;;;;;3.63;1.30;;;;;;;;;;6289732;28;20102;-77
2023/09/25 16:29:14;;;;;;;3.25;1.40;;;;;;;;;;6287560;28;20044;-76
2023/09/25 16:32:16;;;;;;;3.03;1.50;;;;;;;;;;6292378;28;20256;-76
2023/09/25 16:35:20;;;;;;;1.83;1.00;;;;;;;;;;6292613;28;20045;-75
2023/09/25 16:38:22;;;;;;;2.75;1.40;;;;;;;;;;6292678;28;20063;-76
2023/09/25 16:41:27;;;;;;;2.28;1.13;;;;;;;;;;6291190;28;20045;-75
2023/09/25 16:44:29;;;;;;;3.63;1.20;;;;;;;;;;6290257;28;20041;-76
2023/09/25 16:47:31;;;;;;;2.57;1.50;;;;;;;;;;6290316;28;20225;-76
2023/09/25 16:50:34;;;;;;;3.38;1.30;;;;;;;;;;6292850;28;20063;-76
2023/09/25 16:53:36;;;;;;;2.55;1.27;;;;;;;;;;6294453;28;20053;-76
2023/09/25 16:56:39;;;;;;;3.05;1.42;;;;;;;;;;6294021;28;20119;-76
2023/09/25 16:59:40;;;;;;;2.65;1.38;;;;;;;;;;6295013;28;20265;-76
2023/09/25 17:02:43;;;;;;;3.22;1.10;;;;;;;;;;6293299;28;20048;-76
2023/09/25 17:05:44;;;;;;;2.22;1.40;;;;;;;;;;6293402;28;20044;-75
2023/09/25 17:08:47;;;;;;;4.13;1.30;;;;;;;;;;6291629;28;20053;-76
2023/09/25 17:11:50;;;;;;;2.87;1.57;;;;;;;;;;6293595;28;20044;-75
2023/09/25 17:14:54;;;;;;;;;;;;;;;;;;6291397;28;20421;-75
2023/09/25 17:17:55;;;;;;;2.22;1.33;;;;;;;;;;6291861;28;20168;-77
2023/09/25 17:20:57;;;;;;;3.75;1.55;;;;;;;;;;6290349;28;20075;-76
2023/09/25 17:23:59;;;;;;;3.20;1.67;;;;;;;;;;6291049;28;20049;-76
2023/09/25 17:27:02;;;;;;;3.25;1.65;;;;;;;;;;6266692;28;20049;-75
2023/09/25 17:30:05;;;;;;;3.25;1.85;;;;;;;;;;6268105;28;20049;-75
2023/09/25 17:33:07;;;;;;;6.15;1.83;;;;;;;;;;6268371;28;20053;-76
2023/09/25 17:36:09;;;;;;;3.05;1.40;;;;;;;;;;6254430;28;20053;-76
2023/09/25 17:39:11;;;;;;;5.97;1.85;;;;;;;;;;6260526;28;20344;-75
2023/09/25 17:42:14;;;;;;;5.40;2.00;;;;;;;;;;6276809;28;20052;-79
2023/09/25 17:45:15;;;;;;;;;;;;;;;;;;6267544;28;20100;-77
2023/09/25 17:48:17;;;;;;;4.85;1.63;;;;;;;;;;6269637;28;19931;-78
2023/09/25 17:51:19;;;;;;;8.07;2.53;;;;;;;;;;6285922;28;20057;-78
2023/09/25 17:54:21;;;;;;;4.13;2.22;;;;;;;;;;6271707;28;20053;-80
2023/09/25 17:57:24;;;;;;;19.70;8.52;;;;;;;;;;6291287;28;20069;-78
2023/09/25 18:00:26;;;;;;;;;;;;;;;;;;6295683;28;20079;-77
2023/09/25 18:03:28;;;;;;;4.22;2.17;;;;;;;;;;6274949;28;19999;-76
2023/09/25 18:06:30;;;;;;;6.82;2.45;;;;;;;;;;6291352;28;20066;-78
2023/09/25 18:09:32;;;;;;;4.93;2.20;;;;;;;;;;6291348;28;20159;-79
2023/09/25 18:12:36;;;;;;;6.30;2.53;;;;;;;;;;6290405;28;20078;-75
2023/09/25 18:15:39;;;;;;;5.47;2.47;;;;;;;;;;6294200;28;20094;-77
2023/09/25 18:18:40;;;;;;;4.40;2.60;;;;;;;;;;6294875;28;20120;-77
2023/09/25 18:21:42;;;;;;;5.85;2.58;;;;;;;;;;6286058;28;20153;-77
2023/09/25 18:24:44;;;;;;;5.65;2.58;;;;;;;;;;6295419;28;20056;-78
2023/09/25 18:27:47;;;;;;;4.50;2.38;;;;;;;;;;6294750;28;20119;-77
2023/09/25 18:30:49;;;;;;;4.00;2.10;;;;;;;;;;6289547;28;20056;-77
2023/09/25 18:33:51;;;;;;;5.32;2.60;;;;;;;;;;6299176;28;20048;-78
2023/09/25 18:36:53;;;;;;;5.80;2.65;;;;;;;;;;6294073;28;20059;-76
2023/09/25 18:39:55;;;;;;;4.23;2.23;;;;;;;;;;6298837;28;20048;-78
2023/09/25 18:43:00;;;;;;;6.18;2.55;;;;;;;;;;6297617;28;20121;-77
2023/09/25 18:46:02;;;;;;;5.10;2.78;;;;;;;;;;6298002;28;20348;-76
2023/09/25 18:49:04;;;;;;;14.00;3.45;;;;;;;;;;6293355;28;20699;-77
2023/09/25 18:52:06;;;;;;;5.95;3.10;;;;;;;;;;6298884;28;20083;-76
2023/09/25 18:55:08;;;;;;;7.57;3.45;;;;;;;;;;6295671;28;20068;-78
2023/09/25 18:58:12;;;;;;;5.87;3.63;;;;;;;;;;6299071;28;20248;-78
2023/09/25 19:01:14;;;;;;;6.15;3.40;;;;;;;;;;6297252;28;20404;-79
2023/09/25 19:04:16;;;;;;;5.82;3.45;;;;;;;;;;6290825;28;20082;-78